Edinburg, New York
Current Conditions -  °F | °C
As of 9:15 PM on Friday 28 Nov 2014 (Local Time) from KNY0 Reporting Station
Overcast Overcast  
Wind Chill: -13°   Ceiling: 2800
Heat Index: -7°   Visibility: 10mi
Dew Point: -10°   Wind: 9mph
Humidity: 77%   Direction: 270°W
Pressure: 30.19"   Gusts: NA
Location:  43.2819°N, 74.3419°W
Report Text: KNY0 290215Z AUTO 27008KT 10SM BKN028 BKN035 OVC042 M07/M10 A3019 RMK AO2 T10681103
Loading
Personal Weather Stations






























Interactive Weather Map New forecast layout! Learn more

10-Day Weather Forecast

Advertisements
Track Severe Weather on mobile